Albany, NY

12:13 AM EDT on August 03, 2015 (GMT -0400)
Whitehall | | Change Station
CLOSE
Current Station
Personal Weather Station
Location: Albany, NY
Elevation: 226 ft
Nearby Weather Stations

Elev 226 ft 42.65 °N, 73.80 °W | Updated 10 seconds ago

Mostly Cloudy
Mostly Cloudy
70.9 °F
Feels Like 74 °F
N
0.4
Wind Variable Wind from SE
Gusts 2.5 mph

Today
High -- | Low -- °F
--% Chance of Precip.
Yesterday
High -- | Low -- °F
Precip. -- in
5:48 AM 8:13 PM
Waning Gibbous, 90% visible
Pressure 29.80 in
Visibility 10.0 miles
Clouds Few 20000 ft
Scattered Clouds 25000 ft
Heat Index 74 °F
Dew Point 60 °F
Humidity 69%
Rainfall 0.00 in
Snow Depth Not available.
UV 0.0 out of 12
Pollen 7.70 out of 12
Air Quality Not available.
Flu Activity Not available.
METAR KALB 030351Z 17006KT 10SM FEW200 SCT250 23/14 A2980 RMK AO2 SLP090 T02330144

More Conditions Fewer Conditions

Pressure 29.80 in
Visibility 10.0 miles
Clouds Few 20000 ft
Scattered Clouds 25000 ft
Heat Index 74 °F
Dew Point 60 °F
Humidity 69%
Rainfall 0.00 in
Snow Depth Not available.
UV 0.0 out of 12
Pollen 7.70 out of 12
Air Quality Not available.
Flu Activity Not available.
METAR KALB 030351Z 17006KT 10SM FEW200 SCT250 23/14 A2980 RMK AO2 SLP090 T02330144

More Conditions Fewer Conditions

10-Day Weather Forecast

×

Almanac

Astronomy

Aug. 03, 2015 Rise Set
Actual Time
Civil Twilight
Nautical Twilight
Astronomical Twilight
Moon
Length of Visible Light
Length of Day
Tomorrow will be .
, % of the Moon is Illuminated

Today's Extremes

State Highs State Lows

Community

WunderPhotos

Upload Photos

1,843,576 photos uploaded!

WunderBlogs® & News

Nearby

Air Quality

  Air Quality AQ Index Pollutant
Not available.

Snow Depth

Station Depth Elevation

Earthquake Activity

City Distance Mag. Time & Date
Minimum magnitude displayed is 2.5.

Coastal Water Temperatures

Place Temperature

Stations

Nearby Weather Stations

Station Location Temp. Windchill Dew Point Humidity Wind Precip. Elev Updated Type